Time;durP1;ratioP1;P1;durP2;ratioP2;P2;SDS_P1;SDS_P2;PMS_P1;PMS_P2;Temp;Humidity;BMP_temperature;BMP_pressure;BME280_temperature;BME280_humidity;BME280_pressure;Samples;Min_cycle;Max_cycle;Signal;HPM_P1;HPM_P2
2023/04/28 00:01:35;;;;;;;9.63;5.60;;;7.90;99.90;;;;;;4986033;28;20475;-73
2023/04/28 00:04:00;;;;;;;11.88;6.22;;;7.90;99.90;;;;;;4987044;28;20042;-71
2023/04/28 00:06:27;;;;;;;11.57;5.35;;;7.90;99.90;;;;;;4987881;28;20038;-71
2023/04/28 00:08:52;;;;;;;10.35;5.50;;;7.90;99.90;;;;;;4988013;28;20792;-71
2023/04/28 00:11:18;;;;;;;12.05;5.60;;;7.90;99.90;;;;;;4989014;28;20057;-71
2023/04/28 00:13:43;;;;;;;10.68;5.88;;;7.90;99.90;;;;;;4985078;28;20034;-72
2023/04/28 00:16:09;;;;;;;9.35;5.28;;;7.80;99.90;;;;;;4971903;28;20030;-71
2023/04/28 00:18:35;;;;;;;13.27;5.35;;;7.70;99.90;;;;;;4987697;28;20106;-73
2023/04/28 00:21:00;;;;;;;10.30;5.50;;;7.70;99.90;;;;;;4970330;28;20398;-72
2023/04/28 00:23:26;;;;;;;9.93;5.72;;;7.70;99.90;;;;;;4985608;28;20042;-72
2023/04/28 00:25:53;;;;;;;12.75;5.70;;;7.70;99.90;;;;;;4969963;28;20406;-73
2023/04/28 00:28:19;;;;;;;10.88;6.10;;;7.70;99.90;;;;;;4987967;28;20171;-72
2023/04/28 00:30:45;;;;;;;11.32;5.82;;;7.70;99.90;;;;;;4986292;28;20454;-72
2023/04/28 00:33:12;;;;;;;12.88;5.88;;;7.80;99.90;;;;;;4986831;28;20050;-71
2023/04/28 00:35:38;;;;;;;13.93;5.82;;;7.80;99.90;;;;;;4990593;28;20026;-71
2023/04/28 00:38:04;;;;;;;13.07;6.57;;;7.80;99.90;;;;;;4990975;28;20109;-70
2023/04/28 00:40:34;;;;;;;11.70;6.20;;;7.80;99.90;;;;;;4974138;28;20586;-72
2023/04/28 00:42:59;;;;;;;14.07;5.50;;;7.80;99.90;;;;;;4989402;28;20042;-72
2023/04/28 00:45:25;;;;;;;11.27;6.03;;;7.70;99.90;;;;;;4991251;28;20113;-72
2023/04/28 00:47:51;;;;;;;11.00;5.68;;;7.70;99.90;;;;;;4989069;28;20060;-73
2023/04/28 00:50:17;;;;;;;13.02;5.88;;;7.70;99.90;;;;;;4991704;28;20022;-72
2023/04/28 00:52:43;;;;;;;11.10;5.40;;;7.80;99.90;;;;;;4990935;28;20034;-73
2023/04/28 00:55:08;;;;;;;10.05;5.07;;;7.70;99.90;;;;;;4988993;28;20031;-72
2023/04/28 00:57:35;;;;;;;11.45;5.70;;;7.70;99.90;;;;;;4989924;28;20042;-72
2023/04/28 01:00:01;;;;;;;11.60;5.40;;;7.70;99.90;;;;;;4983232;28;20093;-71
2023/04/28 01:02:28;;;;;;;10.95;5.07;;;7.80;99.90;;;;;;4988985;28;20038;-72
2023/04/28 01:04:55;;;;;;;11.88;6.10;;;7.70;99.90;;;;;;4990808;28;20022;-71
2023/04/28 01:07:21;;;;;;;13.45;5.70;;;7.60;99.90;;;;;;4989782;28;20031;-71
2023/04/28 01:09:47;;;;;;;14.38;5.68;;;7.70;99.90;;;;;;4969094;28;20041;-71
2023/04/28 01:12:13;;;;;;;13.40;5.75;;;7.70;99.90;;;;;;4989362;28;20038;-72
2023/04/28 01:14:38;;;;;;;12.43;5.78;;;7.70;99.90;;;;;;4972768;28;20124;-72
2023/04/28 01:17:05;;;;;;;10.75;5.28;;;7.70;99.90;;;;;;4989636;28;20034;-71
2023/04/28 01:19:30;;;;;;;11.18;5.43;;;7.70;99.90;;;;;;4987156;28;20030;-72
2023/04/28 01:21:56;;;;;;;12.90;6.22;;;7.80;99.90;;;;;;4990010;28;20057;-71
2023/04/28 01:24:22;;;;;;;12.85;6.20;;;7.80;99.90;;;;;;4991342;28;20700;-71
2023/04/28 01:26:47;;;;;;;11.93;6.05;;;7.80;99.90;;;;;;4988616;28;20054;-72
2023/04/28 01:29:13;;;;;;;13.68;5.65;;;7.90;99.90;;;;;;4974740;28;20038;-71
2023/04/28 01:31:39;;;;;;;10.70;5.65;;;8.00;99.90;;;;;;4987337;28;20386;-73
2023/04/28 01:34:04;;;;;;;12.48;5.90;;;7.90;99.90;;;;;;4990391;28;20034;-71
2023/04/28 01:36:30;;;;;;;13.55;6.28;;;8.10;99.90;;;;;;4989712;28;20026;-73
2023/04/28 01:38:56;;;;;;;12.40;6.28;;;8.10;99.90;;;;;;4989841;28;20201;-71
2023/04/28 01:41:22;;;;;;;14.93;6.78;;;8.10;99.90;;;;;;4990076;28;20125;-73
2023/04/28 01:43:47;;;;;;;15.52;6.85;;;8.10;99.90;;;;;;4988202;28;20471;-73
2023/04/28 01:46:13;;;;;;;12.18;6.15;;;8.20;99.90;;;;;;4988162;28;20046;-73
2023/04/28 01:48:38;;;;;;;13.85;6.10;;;8.20;99.90;;;;;;4989387;28;20034;-74
2023/04/28 01:51:04;;;;;;;13.02;6.20;;;8.20;99.90;;;;;;4990015;28;20384;-73
2023/04/28 01:53:30;;;;;;;12.80;5.43;;;8.20;99.90;;;;;;4989638;28;20070;-73
2023/04/28 01:55:57;;;;;;;12.43;6.38;;;8.20;99.90;;;;;;4987200;28;20651;-73
2023/04/28 01:58:23;;;;;;;11.73;6.53;;;8.20;99.90;;;;;;4990176;28;20564;-73
2023/04/28 02:00:49;;;;;;;10.55;6.13;;;8.20;99.90;;;;;;4989519;28;20046;-73
2023/04/28 02:03:14;;;;;;;10.75;6.10;;;8.20;99.90;;;;;;4988109;28;20120;-73
2023/04/28 02:05:40;;;;;;;11.68;6.45;;;8.20;99.90;;;;;;4989380;28;20037;-71
2023/04/28 02:08:06;;;;;;;11.68;5.63;;;8.20;99.90;;;;;;4988180;28;20054;-71
2023/04/28 02:10:31;;;;;;;12.48;6.43;;;8.20;99.90;;;;;;4988419;28;20034;-71
2023/04/28 02:12:57;;;;;;;17.77;6.82;;;8.20;99.90;;;;;;4983181;28;20454;-73
2023/04/28 02:15:23;;;;;;;14.55;6.63;;;8.20;99.90;;;;;;4987486;28;20035;-73
2023/04/28 02:17:48;;;;;;;13.13;6.88;;;8.20;99.90;;;;;;5001303;28;20034;-73
2023/04/28 02:20:14;;;;;;;11.27;6.20;;;8.10;99.90;;;;;;4987672;28;20069;-73
2023/04/28 02:22:41;;;;;;;11.73;6.28;;;8.10;99.90;;;;;;4986735;28;20089;-73
2023/04/28 02:25:07;;;;;;;14.50;6.40;;;7.90;99.90;;;;;;4986407;28;20030;-72
2023/04/28 02:27:37;;;;;;;10.80;6.20;;;7.70;99.90;;;;;;4987370;28;20030;-73
2023/04/28 02:30:06;;;;;;;15.73;6.25;;;7.70;99.90;;;;;;4988205;28;20038;-73
2023/04/28 02:32:31;;;;;;;12.63;7.47;;;7.60;99.90;;;;;;4984958;28;20042;-72
2023/04/28 02:34:57;;;;;;;16.80;7.25;;;7.70;99.90;;;;;;4985931;28;20026;-73
2023/04/28 02:37:23;;;;;;;14.43;7.13;;;7.70;99.90;;;;;;4988332;28;20414;-72
2023/04/28 02:39:48;;;;;;;19.25;6.88;;;7.90;99.90;;;;;;4988412;28;20045;-74
2023/04/28 02:42:14;;;;;;;19.30;7.32;;;8.10;99.90;;;;;;4987376;28;20034;-72
2023/04/28 02:44:39;;;;;;;13.40;7.22;;;8.00;99.90;;;;;;4987365;28;20389;-72
2023/04/28 02:47:05;;;;;;;12.93;7.10;;;7.90;99.90;;;;;;4988581;28;20037;-72
2023/04/28 02:49:31;;;;;;;14.85;7.40;;;7.80;99.90;;;;;;4993185;28;20083;-73
2023/04/28 02:51:56;;;;;;;10.60;6.53;;;7.90;99.90;;;;;;4989733;28;20046;-72
2023/04/28 02:54:28;;;;;;;15.45;6.90;;;7.90;99.90;;;;;;4986661;28;20040;-72
2023/04/28 02:56:54;;;;;;;16.05;7.55;;;7.90;99.90;;;;;;4985654;28;20038;-72
2023/04/28 02:59:21;;;;;;;14.85;7.43;;;8.00;99.90;;;;;;4984941;28;20030;-72
2023/04/28 03:01:47;;;;;;;16.40;7.85;;;8.30;99.90;;;;;;4967824;28;20402;-73
2023/04/28 03:04:13;;;;;;;16.92;7.15;;;8.50;99.90;;;;;;4989296;28;20692;-72
2023/04/28 03:06:38;;;;;;;13.45;7.20;;;8.70;99.90;;;;;;4987430;28;20109;-72
2023/04/28 03:09:04;;;;;;;11.68;7.00;;;8.90;99.90;;;;;;4987668;28;20076;-73
2023/04/28 03:11:30;;;;;;;12.07;7.38;;;9.10;99.90;;;;;;4988247;28;20043;-72
2023/04/28 03:13:55;;;;;;;12.40;6.28;;;9.20;99.90;;;;;;4987198;28;20121;-73
2023/04/28 03:16:21;;;;;;;12.25;6.72;;;9.30;99.90;;;;;;4989177;28;20026;-74
2023/04/28 03:18:46;;;;;;;12.55;7.05;;;9.50;99.90;;;;;;4987239;28;20034;-72
2023/04/28 03:21:12;;;;;;;13.02;5.97;;;9.70;99.90;;;;;;4988977;28;20038;-73
2023/04/28 03:23:38;;;;;;;14.40;6.88;;;9.60;99.90;;;;;;4987927;28;20061;-72
2023/04/28 03:26:03;;;;;;;13.35;6.53;;;9.60;99.90;;;;;;4988840;28;20430;-73
2023/04/28 03:28:29;;;;;;;14.73;6.97;;;9.60;99.90;;;;;;4988490;28;20026;-72
2023/04/28 03:30:54;;;;;;;15.38;6.22;;;9.60;99.90;;;;;;4987373;28;20479;-72
2023/04/28 03:33:20;;;;;;;12.38;6.63;;;9.80;99.90;;;;;;4988196;28;20077;-72
2023/04/28 03:35:46;;;;;;;12.02;6.22;;;9.80;99.90;;;;;;4988196;28;20026;-73
2023/04/28 03:38:11;;;;;;;12.88;6.20;;;9.90;99.90;;;;;;4988099;28;20034;-73
2023/04/28 03:40:37;;;;;;;12.80;6.72;;;9.90;99.90;;;;;;4989089;28;20217;-73
2023/04/28 03:43:03;;;;;;;12.82;6.55;;;9.90;99.90;;;;;;4987669;28;20062;-73
2023/04/28 03:45:28;;;;;;;14.70;6.38;;;10.00;99.90;;;;;;4988215;28;20069;-72
2023/04/28 03:47:54;;;;;;;13.98;6.68;;;10.20;99.90;;;;;;4986762;28;20030;-72
2023/04/28 03:50:20;;;;;;;11.00;5.70;;;10.20;99.90;;;;;;4987060;28;20034;-72
2023/04/28 03:52:45;;;;;;;12.27;6.40;;;10.00;99.90;;;;;;4987384;28;20045;-73
2023/04/28 03:55:11;;;;;;;12.85;5.88;;;10.10;99.90;;;;;;5003538;28;20030;-73
2023/04/28 03:57:37;;;;;;;10.30;5.45;;;10.20;99.90;;;;;;4987900;28;20088;-73
2023/04/28 04:00:03;;;;;;;11.30;6.47;;;10.20;99.90;;;;;;4987392;28;20269;-73
2023/04/28 04:02:28;;;;;;;13.02;6.38;;;10.30;99.90;;;;;;4988875;28;20030;-72
2023/04/28 04:04:54;;;;;;;12.55;5.97;;;10.40;99.90;;;;;;4986306;28;20073;-73
2023/04/28 04:07:22;;;;;;;11.98;6.10;;;10.40;99.90;;;;;;4988772;28;20046;-72
2023/04/28 04:09:47;;;;;;;12.73;6.18;;;10.40;99.90;;;;;;4989668;28;20045;-73
2023/04/28 04:12:13;;;;;;;10.40;5.82;;;10.40;99.90;;;;;;4992416;28;20399;-73
2023/04/28 04:14:39;;;;;;;11.27;6.07;;;10.40;99.90;;;;;;4992106;28;20089;-74
2023/04/28 04:17:05;;;;;;;12.32;6.35;;;10.40;99.90;;;;;;4991682;28;20222;-73
2023/04/28 04:19:30;;;;;;;14.00;6.45;;;10.40;99.90;;;;;;4991330;28;20450;-72
2023/04/28 04:21:56;;;;;;;12.45;6.22;;;10.20;99.90;;;;;;4988969;28;20042;-73
2023/04/28 04:24:22;;;;;;;11.80;6.32;;;10.20;99.90;;;;;;4995791;28;20101;-73
2023/04/28 04:26:47;;;;;;;11.52;6.63;;;10.20;99.90;;;;;;4991044;28;20126;-73
2023/04/28 04:29:16;;;;;;;14.73;6.43;;;10.20;99.90;;;;;;4991546;28;20092;-74
2023/04/28 04:31:44;;;;;;;11.98;6.75;;;10.10;99.90;;;;;;4990345;28;20049;-73
2023/04/28 04:34:10;;;;;;;12.35;6.22;;;10.20;99.90;;;;;;4990513;28;20030;-73
2023/04/28 04:36:35;;;;;;;11.68;6.45;;;10.30;99.90;;;;;;4990936;28;20045;-73
2023/04/28 04:39:01;;;;;;;13.93;6.18;;;10.30;99.90;;;;;;4986709;28;20042;-73
2023/04/28 04:41:27;;;;;;;14.73;6.70;;;10.40;99.90;;;;;;4977815;28;20071;-73
2023/04/28 04:43:52;;;;;;;13.75;6.30;;;10.40;99.90;;;;;;4990448;28;20049;-73
2023/04/28 04:46:18;;;;;;;10.25;6.10;;;10.50;99.90;;;;;;4990699;28;20085;-73
2023/04/28 04:48:44;;;;;;;11.20;6.30;;;10.40;99.90;;;;;;4991030;28;20038;-73
2023/04/28 04:51:10;;;;;;;10.75;6.35;;;10.40;99.90;;;;;;4991082;28;20475;-74
2023/04/28 04:53:38;;;;;;;11.63;7.25;;;10.40;99.90;;;;;;4992025;28;20356;-73
2023/04/28 04:56:04;;;;;;;14.93;7.30;;;10.40;99.90;;;;;;4990929;28;20103;-73
2023/04/28 04:58:30;;;;;;;17.58;7.05;;;10.40;99.90;;;;;;4990661;28;20474;-74
2023/04/28 05:00:56;;;;;;;13.00;6.90;;;10.40;99.90;;;;;;4970581;28;20031;-74
2023/04/28 05:03:22;;;;;;;12.77;6.88;;;10.40;99.90;;;;;;4989441;28;20034;-73
2023/04/28 05:05:47;;;;;;;14.93;7.38;;;10.40;99.90;;;;;;4991073;28;20049;-74
2023/04/28 05:08:13;;;;;;;15.68;7.07;;;10.40;99.90;;;;;;4991133;28;20446;-74
2023/04/28 05:10:39;;;;;;;11.57;7.10;;;10.40;99.90;;;;;;4989518;28;20070;-73
2023/04/28 05:13:05;;;;;;;14.93;7.25;;;10.40;99.90;;;;;;4987283;28;20073;-73
2023/04/28 05:15:31;;;;;;;12.93;7.53;;;10.40;99.90;;;;;;4972657;28;20126;-73
2023/04/28 05:17:56;;;;;;;15.45;7.88;;;10.50;99.90;;;;;;4972539;28;20034;-73
2023/04/28 05:20:22;;;;;;;12.27;7.07;;;10.50;99.90;;;;;;4988620;28;20092;-73
2023/04/28 05:22:48;;;;;;;13.75;7.20;;;10.50;99.90;;;;;;4987978;28;20034;-74
2023/04/28 05:25:14;;;;;;;14.20;7.47;;;10.50;99.90;;;;;;4989741;28;20057;-73
2023/04/28 05:27:40;;;;;;;14.02;7.63;;;10.50;99.90;;;;;;4989486;28;20030;-73
2023/04/28 05:30:07;;;;;;;13.38;7.85;;;10.50;99.90;;;;;;4989628;28;20148;-73
2023/04/28 05:32:34;;;;;;;15.52;8.02;;;10.50;99.90;;;;;;4989622;28;20043;-74
2023/04/28 05:35:00;;;;;;;16.38;7.72;;;10.50;99.90;;;;;;4988938;28;20030;-74
2023/04/28 05:37:25;;;;;;;16.13;7.82;;;10.50;99.90;;;;;;4976487;28;20105;-73
2023/04/28 05:39:51;;;;;;;17.65;8.35;;;10.60;99.90;;;;;;4970800;28;20440;-73
2023/04/28 05:42:17;;;;;;;16.05;8.55;;;10.60;99.90;;;;;;4975767;28;20045;-73
2023/04/28 05:44:42;;;;;;;17.42;8.77;;;10.60;99.90;;;;;;4990626;28;20030;-73
2023/04/28 05:47:08;;;;;;;16.50;8.43;;;10.60;99.90;;;;;;4989973;28;20034;-73
2023/04/28 05:49:33;;;;;;;20.67;10.13;;;10.60;99.90;;;;;;4990781;28;20161;-73
2023/04/28 05:51:59;;;;;;;18.30;9.25;;;10.60;99.90;;;;;;4988469;28;20168;-74
2023/04/28 05:54:25;;;;;;;16.88;9.68;;;10.60;99.90;;;;;;4991001;28;20043;-74
2023/04/28 05:56:52;;;;;;;27.58;14.35;;;10.70;99.90;;;;;;4989825;28;20610;-73
2023/04/28 05:59:18;;;;;;;23.27;11.38;;;10.70;99.90;;;;;;4990386;28;20154;-73
2023/04/28 06:01:44;;;;;;;21.67;10.95;;;10.70;99.90;;;;;;4989825;28;20038;-73
2023/04/28 06:04:09;;;;;;;19.02;10.57;;;10.70;99.90;;;;;;4989511;28;20038;-74
2023/04/28 06:06:35;;;;;;;19.13;10.43;;;10.70;99.90;;;;;;4989476;28;20030;-74
2023/04/28 06:09:02;;;;;;;20.17;9.48;;;10.70;99.90;;;;;;4989327;28;20050;-73
2023/04/28 06:11:28;;;;;;;17.20;9.13;;;10.70;99.90;;;;;;4990109;28;20128;-73
2023/04/28 06:13:53;;;;;;;20.05;10.45;;;10.70;99.90;;;;;;4971934;28;20070;-73
2023/04/28 06:16:19;;;;;;;16.95;9.30;;;10.70;99.90;;;;;;4990151;28;20073;-73
2023/04/28 06:18:45;;;;;;;18.08;9.63;;;10.70;99.90;;;;;;4992633;28;20440;-73
2023/04/28 06:21:10;;;;;;;16.48;8.60;;;10.80;99.90;;;;;;4988995;28;20190;-74
2023/04/28 06:23:37;;;;;;;15.13;8.32;;;10.80;99.90;;;;;;4990170;28;20109;-73
2023/04/28 06:26:03;;;;;;;15.63;8.45;;;10.80;99.90;;;;;;4988021;28;20034;-73
2023/04/28 06:28:28;;;;;;;16.38;8.85;;;10.90;99.90;;;;;;4989305;28;20030;-74
2023/04/28 06:30:58;;;;;;;20.85;9.15;;;10.90;99.90;;;;;;4989058;28;20034;-73
2023/04/28 06:33:24;;;;;;;17.20;8.75;;;10.90;99.90;;;;;;4989294;28;20406;-74
2023/04/28 06:35:50;;;;;;;16.80;8.50;;;11.00;99.90;;;;;;4989652;28;20030;-74
2023/04/28 06:38:16;;;;;;;16.88;8.93;;;11.00;99.90;;;;;;4989277;28;20817;-73
2023/04/28 06:40:42;;;;;;;14.77;8.63;;;11.10;99.90;;;;;;4989121;28;20030;-74
2023/04/28 06:43:07;;;;;;;14.50;8.32;;;11.10;99.90;;;;;;4988822;28;20725;-73
2023/04/28 06:45:33;;;;;;;18.08;9.27;;;11.20;99.90;;;;;;4989698;28;20044;-74
2023/04/28 06:48:05;;;;;;;16.33;8.57;;;11.20;99.90;;;;;;4988644;28;20416;-73
2023/04/28 06:50:30;;;;;;;15.27;8.38;;;11.30;99.90;;;;;;4989722;28;20042;-74
2023/04/28 06:52:57;;;;;;;15.30;8.88;;;11.30;99.90;;;;;;4988275;28;20052;-74
2023/04/28 06:55:23;;;;;;;17.58;10.20;;;11.40;99.90;;;;;;4988589;28;20658;-74
2023/04/28 06:57:51;;;;;;;21.73;10.07;;;11.40;99.90;;;;;;5002136;28;20026;-73
2023/04/28 07:00:17;;;;;;;16.83;8.68;;;11.40;99.90;;;;;;4988912;28;20104;-74
2023/04/28 07:02:45;;;;;;;16.75;8.38;;;11.50;99.90;;;;;;4988879;28;20078;-74
2023/04/28 07:05:10;;;;;;;15.95;8.27;;;11.60;99.90;;;;;;4988905;28;20041;-73
2023/04/28 07:07:37;;;;;;;15.43;8.27;;;11.60;99.90;;;;;;4981873;28;20023;-73
2023/04/28 07:10:04;;;;;;;14.52;8.00;;;11.60;99.90;;;;;;4986226;28;20038;-73
2023/04/28 07:12:29;;;;;;;15.95;7.97;;;11.50;99.90;;;;;;4988294;28;20108;-72
2023/04/28 07:14:55;;;;;;;13.15;7.88;;;11.50;99.90;;;;;;4987671;28;20038;-73
2023/04/28 07:17:21;;;;;;;17.05;8.60;;;11.60;99.90;;;;;;4986375;28;20042;-72
2023/04/28 07:19:48;;;;;;;17.70;7.30;;;11.60;99.90;;;;;;4987021;28;20033;-72
2023/04/28 07:22:14;;;;;;;15.52;7.60;;;11.60;99.90;;;;;;4988392;28;20030;-73
2023/04/28 07:24:40;;;;;;;14.98;6.85;;;11.60;99.90;;;;;;4988865;28;20038;-72
2023/04/28 07:27:05;;;;;;;13.85;7.22;;;11.60;99.90;;;;;;4986991;28;20077;-72
2023/04/28 07:29:33;;;;;;;13.18;7.40;;;11.60;99.90;;;;;;4987559;28;20049;-72
2023/04/28 07:32:07;;;;;;;15.80;8.27;;;11.70;99.90;;;;;;4987608;28;20380;-72
2023/04/28 07:34:33;;;;;;;15.60;8.75;;;11.70;99.90;;;;;;4988936;28;20038;-72
2023/04/28 07:36:58;;;;;;;15.57;8.43;;;11.70;99.90;;;;;;4987832;28;20061;-72
2023/04/28 07:39:24;;;;;;;14.73;8.65;;;11.70;99.90;;;;;;4989010;28;20463;-72
2023/04/28 07:41:49;;;;;;;16.33;7.70;;;11.80;99.90;;;;;;4987957;28;20434;-73
2023/04/28 07:44:15;;;;;;;17.42;7.72;;;11.70;99.90;;;;;;4988827;28;20026;-73
2023/04/28 07:46:41;;;;;;;13.77;7.07;;;11.70;99.90;;;;;;4992902;28;20101;-73
2023/04/28 07:49:07;;;;;;;14.05;6.40;;;11.70;99.90;;;;;;4990877;28;20030;-73
2023/04/28 07:51:32;;;;;;;13.90;7.28;;;11.70;99.90;;;;;;4991722;28;20043;-73
2023/04/28 07:54:01;;;;;;;14.27;6.50;;;11.70;99.90;;;;;;4989763;28;20096;-73
2023/04/28 07:56:27;;;;;;;15.70;9.40;;;11.60;99.90;;;;;;4984301;28;20042;-72
2023/04/28 07:58:52;;;;;;;23.67;11.55;;;11.60;99.90;;;;;;4990247;28;20030;-72
2023/04/28 08:01:18;;;;;;;18.45;10.23;;;11.60;99.90;;;;;;4991527;28;20053;-72
2023/04/28 08:03:43;;;;;;;23.02;10.38;;;11.50;99.90;;;;;;4973797;28;20069;-73
2023/04/28 08:06:15;;;;;;;20.33;9.50;;;11.50;99.90;;;;;;4991158;28;20631;-72
2023/04/28 08:08:41;;;;;;;19.85;10.48;;;11.50;99.90;;;;;;4989956;28;20514;-76
2023/04/28 08:11:07;;;;;;;12.20;7.40;;;11.50;99.90;;;;;;4991529;28;20073;-75
2023/04/28 08:13:33;;;;;;;14.25;6.40;;;11.50;99.90;;;;;;4977580;28;20027;-76
2023/04/28 08:16:01;;;;;;;13.13;6.78;;;11.50;99.90;;;;;;4991930;28;20037;-74
2023/04/28 08:18:27;;;;;;;11.82;6.57;;;11.50;99.90;;;;;;4978726;28;20026;-75
2023/04/28 08:20:53;;;;;;;14.68;8.55;;;11.50;99.90;;;;;;4992505;28;20065;-75
2023/04/28 08:23:19;;;;;;;19.50;9.38;;;11.50;99.90;;;;;;4991459;28;20030;-76
2023/04/28 08:25:46;;;;;;;15.90;8.75;;;11.50;99.90;;;;;;4991914;28;20062;-74
2023/04/28 08:28:17;;;;;;;14.82;9.00;;;11.50;99.90;;;;;;4991494;28;20459;-75
2023/04/28 08:30:42;;;;;;;19.20;9.45;;;11.50;99.90;;;;;;4992338;28;20046;-76
2023/04/28 08:33:11;;;;;;;15.77;9.10;;;11.50;99.90;;;;;;4986029;28;20065;-75
2023/04/28 08:35:36;;;;;;;16.08;8.40;;;11.50;99.90;;;;;;4972621;28;20038;-76
2023/04/28 08:38:02;;;;;;;18.60;9.35;;;11.50;99.90;;;;;;4974118;28;20030;-74
2023/04/28 08:40:30;;;;;;;19.63;9.77;;;11.60;99.90;;;;;;4992160;28;20038;-77
2023/04/28 08:42:56;;;;;;;18.02;10.27;;;11.60;99.90;;;;;;4992080;28;20093;-76
2023/04/28 08:45:23;;;;;;;15.35;9.13;;;11.70;99.90;;;;;;4991247;28;20030;-76
2023/04/28 08:47:56;;;;;;;17.48;9.70;;;11.70;99.90;;;;;;4990971;28;20026;-74
2023/04/28 08:50:25;;;;;;;20.63;10.32;;;11.70;99.90;;;;;;4991128;28;20069;-77
2023/04/28 08:52:54;;;;;;;23.02;11.48;;;11.70;99.90;;;;;;4991959;28;20033;-75
2023/04/28 08:55:20;;;;;;;21.17;11.70;;;11.70;99.90;;;;;;4989974;28;20105;-75
2023/04/28 08:57:53;;;;;;;17.05;10.07;;;11.70;99.90;;;;;;4991804;28;20114;-76
2023/04/28 09:00:19;;;;;;;19.45;10.38;;;11.60;99.90;;;;;;4990896;28;20030;-76
2023/04/28 09:02:45;;;;;;;19.17;10.57;;;11.50;99.90;;;;;;4990921;28;20037;-75
2023/04/28 09:05:13;;;;;;;17.70;10.32;;;11.50;99.90;;;;;;4990923;28;20473;-75
2023/04/28 09:07:44;;;;;;;19.60;10.52;;;11.50;99.90;;;;;;4991413;28;20058;-76
2023/04/28 09:10:22;;;;;;;15.90;8.93;;;11.60;99.90;;;;;;4989545;28;20038;-76
2023/04/28 09:12:54;;;;;;;16.42;9.25;;;11.60;99.90;;;;;;4990199;28;20042;-76
2023/04/28 09:15:27;;;;;;;14.93;8.38;;;11.60;99.90;;;;;;4990447;28;20069;-76
2023/04/28 09:17:55;;;;;;;14.88;6.10;;;11.70;99.90;;;;;;4990752;28;20121;-75
2023/04/28 09:20:23;;;;;;;8.18;4.82;;;11.70;99.90;;;;;;4990512;28;20626;-75
2023/04/28 09:22:56;;;;;;;8.82;4.68;;;11.70;99.90;;;;;;4991229;28;20030;-74
2023/04/28 09:25:26;;;;;;;7.40;4.55;;;11.80;99.90;;;;;;4990471;28;20031;-75
2023/04/28 09:27:52;;;;;;;8.98;4.95;;;11.90;99.90;;;;;;4991329;28;20419;-75
2023/04/28 09:30:20;;;;;;;9.80;5.10;;;12.00;99.90;;;;;;4990347;28;20073;-74
2023/04/28 09:33:04;;;;;;;8.27;4.18;;;12.10;99.90;;;;;;4990177;28;20033;-75
2023/04/28 09:35:40;;;;;;;11.38;5.20;;;12.10;99.90;;;;;;4991272;28;20045;-75
2023/04/28 09:38:05;;;;;;;6.55;3.78;;;12.20;99.90;;;;;;4989914;28;20388;-76
2023/04/28 09:40:33;;;;;;;7.57;4.30;;;12.20;99.90;;;;;;4990945;28;20041;-74
2023/04/28 09:42:58;;;;;;;7.85;4.63;;;12.20;99.90;;;;;;4991115;28;20022;-75
2023/04/28 09:45:41;;;;;;;9.20;4.25;;;12.20;99.90;;;;;;4990275;28;20027;-76
2023/04/28 09:48:12;;;;;;;7.50;4.97;;;12.20;99.90;;;;;;4989267;28;20044;-76
2023/04/28 09:50:40;;;;;;;7.10;4.57;;;12.20;99.90;;;;;;4990838;28;20034;-76
2023/04/28 09:53:12;;;;;;;7.70;4.80;;;12.20;99.90;;;;;;4989860;28;20077;-73
2023/04/28 09:55:42;;;;;;;5.10;3.50;;;12.20;99.90;;;;;;4990864;28;20070;-76
2023/04/28 09:58:18;;;;;;;7.00;3.70;;;12.30;99.90;;;;;;4989896;28;20037;-74
2023/04/28 10:00:44;;;;;;;5.88;2.78;;;12.30;99.90;;;;;;4990586;28;20105;-75
2023/04/28 10:03:11;;;;;;;6.07;3.40;;;12.30;99.90;;;;;;4988909;28;20551;-75
2023/04/28 10:05:38;;;;;;;7.35;3.25;;;12.40;99.90;;;;;;4989592;28;20113;-74
2023/04/28 10:08:04;;;;;;;6.13;3.92;;;12.50;99.90;;;;;;4987881;28;20146;-74
2023/04/28 10:10:37;;;;;;;5.70;3.33;;;12.40;99.90;;;;;;4997430;28;20406;-76
2023/04/28 10:13:03;;;;;;;4.80;3.08;;;12.50;99.90;;;;;;4989764;28;20113;-75
2023/04/28 10:15:31;;;;;;;7.50;3.78;;;12.50;99.90;;;;;;4994361;28;20117;-76
2023/04/28 10:18:02;;;;;;;5.13;3.45;;;12.70;99.90;;;;;;4991975;28;20034;-77
2023/04/28 10:20:31;;;;;;;6.32;3.83;;;12.80;99.90;;;;;;4991154;28;20121;-77
2023/04/28 10:23:34;;;;;;;4.45;3.17;;;12.70;99.90;;;;;;4988347;28;20514;-75
2023/04/28 10:26:01;;;;;;;5.22;3.45;;;12.80;99.90;;;;;;4990121;28;20820;-75
2023/04/28 10:28:28;;;;;;;5.65;3.63;;;12.80;99.90;;;;;;4989152;28;20034;-74
2023/04/28 10:31:16;;;;;;;6.43;4.03;;;12.80;99.90;;;;;;4990106;28;20065;-75
2023/04/28 10:33:42;;;;;;;6.40;4.13;;;12.90;99.90;;;;;;4990366;28;20030;-75
2023/04/28 10:36:08;;;;;;;6.38;4.05;;;12.80;99.90;;;;;;4988321;28;20566;-74
2023/04/28 10:38:35;;;;;;;6.45;4.25;;;12.80;99.90;;;;;;4985477;28;20038;-75
2023/04/28 10:41:03;;;;;;;8.25;4.88;;;12.90;99.90;;;;;;4972253;28;20049;-75
2023/04/28 10:43:32;;;;;;;5.50;3.58;;;12.90;99.90;;;;;;4988543;28;20411;-78
2023/04/28 10:45:59;;;;;;;6.65;4.22;;;13.00;99.90;;;;;;5003681;28;20598;-76
2023/04/28 10:48:28;;;;;;;6.72;3.92;;;13.00;99.90;;;;;;4988892;28;20030;-76
2023/04/28 10:53:44;;;;;;;6.05;4.10;;;13.10;99.90;;;;;;4992008;28;20077;-76
2023/04/28 10:56:26;;;;;;;7.25;4.60;;;13.20;99.90;;;;;;4987566;28;20030;-75
2023/04/28 10:58:53;;;;;;;7.55;4.50;;;13.20;99.90;;;;;;4989734;28;20034;-76
2023/04/28 11:01:29;;;;;;;7.47;4.70;;;13.10;99.90;;;;;;4986656;28;20034;-75
2023/04/28 11:03:59;;;;;;;8.23;5.18;;;13.20;99.90;;;;;;4985616;28;20029;-77
2023/04/28 11:06:35;;;;;;;8.65;5.20;;;13.20;99.90;;;;;;4992451;28;20536;-75
2023/04/28 11:09:11;;;;;;;7.93;4.78;;;13.20;99.90;;;;;;4952149;28;20066;-75
2023/04/28 11:11:38;;;;;;;6.97;4.50;;;13.30;99.90;;;;;;4981270;28;20050;-76
2023/04/28 11:14:16;;;;;;;10.02;4.78;;;13.30;99.90;;;;;;4988910;28;20062;-77
2023/04/28 11:16:59;;;;;;;7.90;5.20;;;13.40;99.90;;;;;;4988575;28;20038;-76
2023/04/28 11:19:31;;;;;;;6.75;4.50;;;13.30;99.90;;;;;;4987503;28;20085;-77
2023/04/28 11:22:03;;;;;;;8.02;4.60;;;13.30;99.90;;;;;;4987760;28;20080;-76
2023/04/28 11:24:30;;;;;;;7.13;4.45;;;13.40;99.90;;;;;;4982769;28;20030;-76
2023/04/28 11:27:01;;;;;;;7.82;5.10;;;13.40;99.90;;;;;;4950885;28;20043;-73
2023/04/28 11:29:32;;;;;;;;;;;13.40;99.90;;;;;;4961922;28;20034;-75
2023/04/28 11:31:58;;;;;;;8.82;4.88;;;13.50;99.90;;;;;;4983629;28;20853;-73
2023/04/28 11:34:24;;;;;;;9.88;5.35;;;13.60;99.90;;;;;;4971075;28;20053;-75
2023/04/28 11:36:50;;;;;;;9.40;5.93;;;13.60;99.90;;;;;;4985938;28;20022;-74
2023/04/28 11:39:24;;;;;;;8.70;5.35;;;13.90;99.90;;;;;;4986755;28;20046;-75
2023/04/28 11:41:49;;;;;;;7.28;4.80;;;14.00;99.90;;;;;;4986924;28;20034;-75
2023/04/28 11:44:23;;;;;;;8.95;4.85;;;14.10;99.90;;;;;;4986466;28;20037;-75
2023/04/28 11:46:59;;;;;;;13.52;4.80;;;14.10;99.90;;;;;;4987514;28;20034;-74
2023/04/28 11:49:37;;;;;;;6.20;4.35;;;14.00;99.90;;;;;;4985427;28;20035;-74
2023/04/28 11:52:05;;;;;;;6.35;3.92;;;14.00;99.90;;;;;;4987145;28;20414;-74
2023/04/28 11:54:31;;;;;;;7.22;4.63;;;14.10;99.90;;;;;;4984719;28;20034;-76
2023/04/28 11:56:59;;;;;;;9.48;4.40;;;14.00;99.90;;;;;;4984367;28;20026;-75
2023/04/28 11:59:27;;;;;;;9.73;4.90;;;14.10;99.90;;;;;;4984519;28;20964;-75
2023/04/28 12:01:58;;;;;;;8.98;5.20;;;14.10;99.90;;;;;;4982190;28;20038;-74
2023/04/28 12:04:36;;;;;;;9.60;5.32;;;14.10;99.90;;;;;;4981202;28;20049;-74
2023/04/28 12:07:16;;;;;;;6.32;3.92;;;14.20;99.90;;;;;;4980663;28;20061;-73
2023/04/28 12:09:45;;;;;;;7.03;4.63;;;14.20;99.90;;;;;;4979097;28;20503;-74
2023/04/28 12:12:29;;;;;;;7.75;4.72;;;14.20;99.90;;;;;;4983519;28;20042;-74
2023/04/28 12:15:00;;;;;;;8.20;4.78;;;14.30;99.90;;;;;;4985593;28;20101;-74
2023/04/28 12:17:32;;;;;;;7.60;5.00;;;14.40;99.90;;;;;;4982957;28;20033;-74
2023/04/28 12:20:00;;;;;;;6.88;4.47;;;14.50;99.90;;;;;;4985050;28;20458;-74
2023/04/28 12:22:25;;;;;;;8.60;4.32;;;14.60;99.90;;;;;;4984281;28;20598;-71
2023/04/28 12:25:09;;;;;;;7.78;4.30;;;14.70;99.90;;;;;;4986235;28;20026;-72
2023/04/28 12:27:39;;;;;;;7.18;4.18;;;14.80;99.90;;;;;;4983711;28;20688;-73
2023/04/28 12:30:29;;;;;;;7.38;4.15;;;14.80;99.90;;;;;;4985292;28;20034;-78
2023/04/28 12:32:55;;;;;;;8.90;4.10;;;14.80;99.90;;;;;;4986938;28;20648;-72
2023/04/28 12:35:22;;;;;;;7.18;3.72;;;14.80;99.90;;;;;;4990842;28;20287;-73
2023/04/28 12:37:47;;;;;;;6.82;3.88;;;14.90;99.90;;;;;;4987910;28;20023;-72
2023/04/28 12:40:13;;;;;;;7.00;3.97;;;14.80;99.90;;;;;;4988211;28;20046;-72
2023/04/28 12:42:39;;;;;;;4.63;2.63;;;14.80;99.90;;;;;;4983733;28;20038;-73
2023/04/28 12:45:06;;;;;;;4.47;2.95;;;14.70;99.90;;;;;;4989165;28;20522;-72
2023/04/28 12:47:32;;;;;;;3.50;2.67;;;14.60;99.90;;;;;;4988897;28;20142;-72